EmailTwitter


Surface observations / France / LFBO (07630)

Regions: Quebec | Canada | USA | Europe | France | UK | Elsewhere
Station
Display
Info & Location for LFBO (07630) | Help decoding METAR

Weather Conditions observed on 2018/02/24 at 18:00 UTC at TOULOUSE/BLAGNAC, FR (LFBO)

Temperature: 6.0 Celsius.

Dewpoint: -2.0 Celsius.

Relative Humidity: 56%

Winds: Northwest at 6 km/h or 3 knots.

Mean Sea level Pressure: 101.00 kilopascals.

Coded METAR:

LFBO 241800Z AUTO 33003KT CAVOK 06/M02 Q1010 NOSIG=